sensor_id;sensor_type;location;lat;lon;timestamp;temperature;humidity
38325;DHT22;24126;52.672;13.622;2023-12-14T00:00:30;9.10;83.00
38325;DHT22;24126;52.672;13.622;2023-12-14T00:03:07;9.10;82.70
38325;DHT22;24126;52.672;13.622;2023-12-14T00:05:41;9.10;82.90
38325;DHT22;24126;52.672;13.622;2023-12-14T00:08:09;9.00;82.70
38325;DHT22;24126;52.672;13.622;2023-12-14T00:10:38;9.00;82.90
38325;DHT22;24126;52.672;13.622;2023-12-14T00:13:09;9.00;82.80
38325;DHT22;24126;52.672;13.622;2023-12-14T00:15:36;9.00;82.80
38325;DHT22;24126;52.672;13.622;2023-12-14T00:18:03;9.10;82.90
38325;DHT22;24126;52.672;13.622;2023-12-14T00:20:31;9.10;82.80
38325;DHT22;24126;52.672;13.622;2023-12-14T01:51:28;8.60;82.30
38325;DHT22;24126;52.672;13.622;2023-12-14T01:53:55;8.60;82.10
38325;DHT22;24126;52.672;13.622;2023-12-14T01:56:22;8.60;82.00
38325;DHT22;24126;52.672;13.622;2023-12-14T01:58:50;8.60;81.90
38325;DHT22;24126;52.672;13.622;2023-12-14T02:03:49;8.60;82.00
38325;DHT22;24126;52.672;13.622;2023-12-14T02:06:16;8.60;82.10
38325;DHT22;24126;52.672;13.622;2023-12-14T02:08:43;8.60;82.10
38325;DHT22;24126;52.672;13.622;2023-12-14T02:11:11;8.60;82.10
38325;DHT22;24126;52.672;13.622;2023-12-14T02:13:38;8.60;81.90
38325;DHT22;24126;52.672;13.622;2023-12-14T02:16:06;8.60;81.90
38325;DHT22;24126;52.672;13.622;2023-12-14T02:18:38;8.60;82.00
38325;DHT22;24126;52.672;13.622;2023-12-14T02:21:06;8.60;81.90
38325;DHT22;24126;52.672;13.622;2023-12-14T02:23:33;8.60;82.00
38325;DHT22;24126;52.672;13.622;2023-12-14T02:26:00;8.60;82.00
38325;DHT22;24126;52.672;13.622;2023-12-14T02:28:27;8.60;81.90
38325;DHT22;24126;52.672;13.622;2023-12-14T02:30:55;8.60;81.70
38325;DHT22;24126;52.672;13.622;2023-12-14T02:33:25;8.60;81.60
38325;DHT22;24126;52.672;13.622;2023-12-14T02:35:53;8.60;81.70
38325;DHT22;24126;52.672;13.622;2023-12-14T02:38:25;8.60;81.70
38325;DHT22;24126;52.672;13.622;2023-12-14T02:40:55;8.60;81.80
38325;DHT22;24126;52.672;13.622;2023-12-14T02:43:24;8.60;82.00
38325;DHT22;24126;52.672;13.622;2023-12-14T02:45:54;8.60;81.90
38325;DHT22;24126;52.672;13.622;2023-12-14T02:48:30;8.60;81.80
38325;DHT22;24126;52.672;13.622;2023-12-14T02:51:03;8.60;81.70
38325;DHT22;24126;52.672;13.622;2023-12-14T02:53:37;8.50;81.80
38325;DHT22;24126;52.672;13.622;2023-12-14T02:56:09;8.60;81.80
38325;DHT22;24126;52.672;13.622;2023-12-14T02:58:39;8.60;81.90
38325;DHT22;24126;52.672;13.622;2023-12-14T03:01:07;8.60;81.80
38325;DHT22;24126;52.672;13.622;2023-12-14T03:03:40;8.60;81.90
38325;DHT22;24126;52.672;13.622;2023-12-14T03:06:10;8.60;81.90
38325;DHT22;24126;52.672;13.622;2023-12-14T03:08:40;8.60;81.60
38325;DHT22;24126;52.672;13.622;2023-12-14T03:11:22;8.60;81.60
38325;DHT22;24126;52.672;13.622;2023-12-14T03:14:08;8.60;81.70
38325;DHT22;24126;52.672;13.622;2023-12-14T03:16:41;8.60;81.70
38325;DHT22;24126;52.672;13.622;2023-12-14T03:19:11;8.60;81.60
38325;DHT22;24126;52.672;13.622;2023-12-14T03:21:44;8.60;81.50
38325;DHT22;24126;52.672;13.622;2023-12-14T03:24:11;8.60;81.50
38325;DHT22;24126;52.672;13.622;2023-12-14T03:26:45;8.60;81.40
38325;DHT22;24126;52.672;13.622;2023-12-14T03:29:18;8.60;81.70
38325;DHT22;24126;52.672;13.622;2023-12-14T03:31:50;8.60;81.50
38325;DHT22;24126;52.672;13.622;2023-12-14T03:34:20;8.60;81.60
38325;DHT22;24126;52.672;13.622;2023-12-14T03:36:48;8.60;81.50
38325;DHT22;24126;52.672;13.622;2023-12-14T03:39:16;8.60;81.30
38325;DHT22;24126;52.672;13.622;2023-12-14T03:41:46;8.60;81.40
38325;DHT22;24126;52.672;13.622;2023-12-14T03:44:13;8.60;81.70
38325;DHT22;24126;52.672;13.622;2023-12-14T03:46:44;8.60;81.70
38325;DHT22;24126;52.672;13.622;2023-12-14T03:49:11;8.60;81.80
38325;DHT22;24126;52.672;13.622;2023-12-14T03:51:49;8.60;81.60
38325;DHT22;24126;52.672;13.622;2023-12-14T03:54:19;8.60;81.60
38325;DHT22;24126;52.672;13.622;2023-12-14T03:56:51;8.60;81.50
38325;DHT22;24126;52.672;13.622;2023-12-14T03:59:19;8.70;81.50
38325;DHT22;24126;52.672;13.622;2023-12-14T04:01:46;8.60;81.50
38325;DHT22;24126;52.672;13.622;2023-12-14T04:04:14;8.70;81.50
38325;DHT22;24126;52.672;13.622;2023-12-14T04:06:50;8.70;81.40
38325;DHT22;24126;52.672;13.622;2023-12-14T04:09:17;8.70;81.50
38325;DHT22;24126;52.672;13.622;2023-12-14T04:11:47;8.70;81.50
38325;DHT22;24126;52.672;13.622;2023-12-14T04:14:14;8.70;81.40
38325;DHT22;24126;52.672;13.622;2023-12-14T04:16:42;8.70;81.50
38325;DHT22;24126;52.672;13.622;2023-12-14T04:19:09;8.70;81.50
38325;DHT22;24126;52.672;13.622;2023-12-14T04:21:39;8.70;81.50
38325;DHT22;24126;52.672;13.622;2023-12-14T04:24:07;8.70;81.50
38325;DHT22;24126;52.672;13.622;2023-12-14T04:26:35;8.70;81.50
38325;DHT22;24126;52.672;13.622;2023-12-14T04:29:06;8.70;81.40
38325;DHT22;24126;52.672;13.622;2023-12-14T04:31:34;8.70;81.50
38325;DHT22;24126;52.672;13.622;2023-12-14T04:34:01;8.70;81.40
38325;DHT22;24126;52.672;13.622;2023-12-14T04:36:32;8.70;81.30
38325;DHT22;24126;52.672;13.622;2023-12-14T04:38:59;8.70;81.40
38325;DHT22;24126;52.672;13.622;2023-12-14T04:41:27;8.70;81.40
38325;DHT22;24126;52.672;13.622;2023-12-14T04:43:56;8.70;81.40
38325;DHT22;24126;52.672;13.622;2023-12-14T04:46:26;8.70;81.40
38325;DHT22;24126;52.672;13.622;2023-12-14T04:48:53;8.70;81.40
38325;DHT22;24126;52.672;13.622;2023-12-14T04:51:20;8.70;81.30
38325;DHT22;24126;52.672;13.622;2023-12-14T04:53:52;8.70;81.40
38325;DHT22;24126;52.672;13.622;2023-12-14T04:56:19;8.70;81.60
38325;DHT22;24126;52.672;13.622;2023-12-14T04:58:46;8.70;81.50
38325;DHT22;24126;52.672;13.622;2023-12-14T05:01:13;8.70;81.50
38325;DHT22;24126;52.672;13.622;2023-12-14T05:03:41;8.70;81.60
38325;DHT22;24126;52.672;13.622;2023-12-14T05:06:08;8.70;82.30
38325;DHT22;24126;52.672;13.622;2023-12-14T05:08:35;8.70;81.70
38325;DHT22;24126;52.672;13.622;2023-12-14T05:11:03;8.70;81.60
38325;DHT22;24126;52.672;13.622;2023-12-14T05:13:33;8.60;81.50
38325;DHT22;24126;52.672;13.622;2023-12-14T05:16:01;8.60;81.50
38325;DHT22;24126;52.672;13.622;2023-12-14T05:18:28;8.70;81.60
38325;DHT22;24126;52.672;13.622;2023-12-14T05:20:55;8.60;81.60
38325;DHT22;24126;52.672;13.622;2023-12-14T05:23:23;8.60;81.60
38325;DHT22;24126;52.672;13.622;2023-12-14T05:25:50;8.60;81.60
38325;DHT22;24126;52.672;13.622;2023-12-14T05:28:18;8.70;81.60
38325;DHT22;24126;52.672;13.622;2023-12-14T05:30:45;8.60;81.60
38325;DHT22;24126;52.672;13.622;2023-12-14T05:33:18;8.70;81.60
38325;DHT22;24126;52.672;13.622;2023-12-14T05:36:21;8.70;81.60
38325;DHT22;24126;52.672;13.622;2023-12-14T05:39:01;8.70;81.50
38325;DHT22;24126;52.672;13.622;2023-12-14T05:41:50;8.70;81.40
38325;DHT22;24126;52.672;13.622;2023-12-14T05:44:48;8.60;81.50
38325;DHT22;24126;52.672;13.622;2023-12-14T05:47:39;8.60;81.40
38325;DHT22;24126;52.672;13.622;2023-12-14T05:50:40;8.60;81.70
38325;DHT22;24126;52.672;13.622;2023-12-14T05:57:16;8.70;81.70
38325;DHT22;24126;52.672;13.622;2023-12-14T05:59:57;8.70;81.60
38325;DHT22;24126;52.672;13.622;2023-12-14T06:02:47;8.70;81.30
38325;DHT22;24126;52.672;13.622;2023-12-14T06:05:24;8.70;81.50
38325;DHT22;24126;52.672;13.622;2023-12-14T06:07:51;8.70;81.40
38325;DHT22;24126;52.672;13.622;2023-12-14T06:10:19;8.70;81.30
38325;DHT22;24126;52.672;13.622;2023-12-14T06:12:47;8.60;81.40
38325;DHT22;24126;52.672;13.622;2023-12-14T06:15:14;8.60;81.30
38325;DHT22;24126;52.672;13.622;2023-12-14T06:17:46;8.60;81.50
38325;DHT22;24126;52.672;13.622;2023-12-14T06:20:16;8.60;81.50
38325;DHT22;24126;52.672;13.622;2023-12-14T06:22:46;8.60;81.40
38325;DHT22;24126;52.672;13.622;2023-12-14T06:25:13;8.60;81.40
38325;DHT22;24126;52.672;13.622;2023-12-14T06:27:41;8.60;81.30
38325;DHT22;24126;52.672;13.622;2023-12-14T06:30:08;8.50;81.40
38325;DHT22;24126;52.672;13.622;2023-12-14T06:32:36;8.50;81.40
38325;DHT22;24126;52.672;13.622;2023-12-14T06:35:06;8.50;81.30
38325;DHT22;24126;52.672;13.622;2023-12-14T06:37:33;8.50;81.40
38325;DHT22;24126;52.672;13.622;2023-12-14T06:40:04;8.50;81.40
38325;DHT22;24126;52.672;13.622;2023-12-14T06:42:46;8.50;81.50
38325;DHT22;24126;52.672;13.622;2023-12-14T06:45:23;8.50;81.40
38325;DHT22;24126;52.672;13.622;2023-12-14T06:52:16;8.40;81.60
38325;DHT22;24126;52.672;13.622;2023-12-14T06:55:33;8.40;81.60
38325;DHT22;24126;52.672;13.622;2023-12-14T06:58:11;8.40;81.60
38325;DHT22;24126;52.672;13.622;2023-12-14T07:01:05;8.40;81.60
38325;DHT22;24126;52.672;13.622;2023-12-14T07:03:33;8.40;81.50
38325;DHT22;24126;52.672;13.622;2023-12-14T07:06:00;8.40;81.50
38325;DHT22;24126;52.672;13.622;2023-12-14T07:08:28;8.40;81.60
38325;DHT22;24126;52.672;13.622;2023-12-14T07:10:55;8.50;81.60
38325;DHT22;24126;52.672;13.622;2023-12-14T07:13:22;8.50;81.50
38325;DHT22;24126;52.672;13.622;2023-12-14T07:15:49;8.50;81.40
38325;DHT22;24126;52.672;13.622;2023-12-14T07:18:20;8.50;81.40
38325;DHT22;24126;52.672;13.622;2023-12-14T07:20:47;8.50;81.40
38325;DHT22;24126;52.672;13.622;2023-12-14T07:23:14;8.50;81.20
38325;DHT22;24126;52.672;13.622;2023-12-14T07:25:41;8.60;81.40
38325;DHT22;24126;52.672;13.622;2023-12-14T07:28:09;8.60;81.30
38325;DHT22;24126;52.672;13.622;2023-12-14T07:30:36;8.60;81.30
38325;DHT22;24126;52.672;13.622;2023-12-14T07:33:03;8.60;81.20
38325;DHT22;24126;52.672;13.622;2023-12-14T07:35:31;8.60;81.00
38325;DHT22;24126;52.672;13.622;2023-12-14T07:37:58;8.60;81.00
38325;DHT22;24126;52.672;13.622;2023-12-14T07:40:25;8.70;81.20
38325;DHT22;24126;52.672;13.622;2023-12-14T07:43:16;8.70;81.20
38325;DHT22;24126;52.672;13.622;2023-12-14T07:46:13;8.70;81.20
38325;DHT22;24126;52.672;13.622;2023-12-14T07:52:20;8.70;81.10
38325;DHT22;24126;52.672;13.622;2023-12-14T07:54:48;8.70;81.00
38325;DHT22;24126;52.672;13.622;2023-12-14T07:57:15;8.70;80.90
38325;DHT22;24126;52.672;13.622;2023-12-14T07:59:43;8.70;80.90
38325;DHT22;24126;52.672;13.622;2023-12-14T08:02:14;8.70;80.90
38325;DHT22;24126;52.672;13.622;2023-12-14T08:04:44;8.70;81.00
38325;DHT22;24126;52.672;13.622;2023-12-14T08:07:12;8.70;81.00
38325;DHT22;24126;52.672;13.622;2023-12-14T08:09:40;8.70;80.80
38325;DHT22;24126;52.672;13.622;2023-12-14T08:12:07;8.80;80.90
38325;DHT22;24126;52.672;13.622;2023-12-14T08:14:35;8.80;80.80
38325;DHT22;24126;52.672;13.622;2023-12-14T08:17:03;8.80;80.90
38325;DHT22;24126;52.672;13.622;2023-12-14T08:19:30;8.80;80.90
38325;DHT22;24126;52.672;13.622;2023-12-14T08:21:58;8.80;80.70
38325;DHT22;24126;52.672;13.622;2023-12-14T08:24:26;8.80;80.80
38325;DHT22;24126;52.672;13.622;2023-12-14T08:26:53;8.80;80.80
38325;DHT22;24126;52.672;13.622;2023-12-14T08:29:23;8.80;80.80
38325;DHT22;24126;52.672;13.622;2023-12-14T08:31:53;8.80;81.50
38325;DHT22;24126;52.672;13.622;2023-12-14T08:34:23;8.80;80.80
38325;DHT22;24126;52.672;13.622;2023-12-14T08:36:54;8.80;80.70
38325;DHT22;24126;52.672;13.622;2023-12-14T08:39:23;8.80;80.70
38325;DHT22;24126;52.672;13.622;2023-12-14T08:41:52;8.80;80.70
38325;DHT22;24126;52.672;13.622;2023-12-14T08:44:22;8.80;80.60
38325;DHT22;24126;52.672;13.622;2023-12-14T08:46:49;8.80;80.60
38325;DHT22;24126;52.672;13.622;2023-12-14T08:49:17;8.80;80.60
38325;DHT22;24126;52.672;13.622;2023-12-14T08:51:58;8.70;80.50
38325;DHT22;24126;52.672;13.622;2023-12-14T08:54:41;8.70;80.50
38325;DHT22;24126;52.672;13.622;2023-12-14T08:57:11;8.70;80.70
38325;DHT22;24126;52.672;13.622;2023-12-14T08:59:38;8.70;80.60
38325;DHT22;24126;52.672;13.622;2023-12-14T09:02:07;8.70;80.40
38325;DHT22;24126;52.672;13.622;2023-12-14T09:04:35;8.70;80.50
38325;DHT22;24126;52.672;13.622;2023-12-14T09:07:02;8.70;80.60
38325;DHT22;24126;52.672;13.622;2023-12-14T09:09:31;8.70;80.60
38325;DHT22;24126;52.672;13.622;2023-12-14T09:11:58;8.70;80.50
38325;DHT22;24126;52.672;13.622;2023-12-14T09:14:31;8.70;80.50
38325;DHT22;24126;52.672;13.622;2023-12-14T09:16:58;8.70;80.50
38325;DHT22;24126;52.672;13.622;2023-12-14T09:19:29;8.80;80.60
38325;DHT22;24126;52.672;13.622;2023-12-14T09:21:56;8.70;80.50
38325;DHT22;24126;52.672;13.622;2023-12-14T09:24:27;8.80;80.50
38325;DHT22;24126;52.672;13.622;2023-12-14T09:26:59;8.80;80.40
38325;DHT22;24126;52.672;13.622;2023-12-14T09:29:30;8.80;80.30
38325;DHT22;24126;52.672;13.622;2023-12-14T09:31:58;8.80;80.30
38325;DHT22;24126;52.672;13.622;2023-12-14T09:34:25;8.80;80.40
38325;DHT22;24126;52.672;13.622;2023-12-14T09:36:52;8.80;80.30
38325;DHT22;24126;52.672;13.622;2023-12-14T09:39:19;8.80;80.20
38325;DHT22;24126;52.672;13.622;2023-12-14T09:41:47;8.80;80.10
38325;DHT22;24126;52.672;13.622;2023-12-14T09:44:14;8.80;80.10
38325;DHT22;24126;52.672;13.622;2023-12-14T09:46:41;8.80;79.90
38325;DHT22;24126;52.672;13.622;2023-12-14T09:49:15;8.80;80.00
38325;DHT22;24126;52.672;13.622;2023-12-14T09:51:44;8.70;80.10
38325;DHT22;24126;52.672;13.622;2023-12-14T09:54:12;8.70;79.80
38325;DHT22;24126;52.672;13.622;2023-12-14T09:56:46;8.70;79.70
38325;DHT22;24126;52.672;13.622;2023-12-14T09:59:14;8.70;79.90
38325;DHT22;24126;52.672;13.622;2023-12-14T10:01:41;8.70;79.90
38325;DHT22;24126;52.672;13.622;2023-12-14T10:06:36;8.60;80.10
38325;DHT22;24126;52.672;13.622;2023-12-14T10:09:03;8.60;80.10
38325;DHT22;24126;52.672;13.622;2023-12-14T10:11:31;8.60;80.10
38325;DHT22;24126;52.672;13.622;2023-12-14T10:13:58;8.70;80.00
38325;DHT22;24126;52.672;13.622;2023-12-14T10:16:28;8.60;80.00
38325;DHT22;24126;52.672;13.622;2023-12-14T10:18:57;8.70;80.20
38325;DHT22;24126;52.672;13.622;2023-12-14T10:21:27;8.70;80.20
38325;DHT22;24126;52.672;13.622;2023-12-14T10:23:55;8.70;80.10
38325;DHT22;24126;52.672;13.622;2023-12-14T10:26:23;8.70;79.90
38325;DHT22;24126;52.672;13.622;2023-12-14T10:28:52;8.70;79.90
38325;DHT22;24126;52.672;13.622;2023-12-14T10:31:19;8.80;80.00
38325;DHT22;24126;52.672;13.622;2023-12-14T10:33:47;8.70;79.70
38325;DHT22;24126;52.672;13.622;2023-12-14T10:36:15;8.70;79.90
38325;DHT22;24126;52.672;13.622;2023-12-14T10:38:43;8.70;79.80
38325;DHT22;24126;52.672;13.622;2023-12-14T10:41:11;8.70;79.90
38325;DHT22;24126;52.672;13.622;2023-12-14T10:43:41;8.70;80.10
38325;DHT22;24126;52.672;13.622;2023-12-14T10:46:09;8.70;79.90
38325;DHT22;24126;52.672;13.622;2023-12-14T10:48:36;8.70;79.70
38325;DHT22;24126;52.672;13.622;2023-12-14T10:51:05;8.70;79.50
38325;DHT22;24126;52.672;13.622;2023-12-14T10:53:32;8.70;79.70
38325;DHT22;24126;52.672;13.622;2023-12-14T10:56:00;8.70;79.70
38325;DHT22;24126;52.672;13.622;2023-12-14T10:58:43;8.70;79.70
38325;DHT22;24126;52.672;13.622;2023-12-14T11:01:15;8.70;79.70
38325;DHT22;24126;52.672;13.622;2023-12-14T11:03:43;8.70;79.60
38325;DHT22;24126;52.672;13.622;2023-12-14T11:08:47;8.70;79.80
38325;DHT22;24126;52.672;13.622;2023-12-14T11:11:14;8.80;79.70
38325;DHT22;24126;52.672;13.622;2023-12-14T11:13:52;8.80;79.80
38325;DHT22;24126;52.672;13.622;2023-12-14T11:16:20;8.80;79.80
38325;DHT22;24126;52.672;13.622;2023-12-14T11:18:48;8.90;79.70
38325;DHT22;24126;52.672;13.622;2023-12-14T11:21:18;8.90;79.60
38325;DHT22;24126;52.672;13.622;2023-12-14T11:23:47;9.00;79.60
38325;DHT22;24126;52.672;13.622;2023-12-14T11:26:22;9.00;79.50
38325;DHT22;24126;52.672;13.622;2023-12-14T11:28:54;9.00;79.50
38325;DHT22;24126;52.672;13.622;2023-12-14T11:31:21;9.10;79.10
38325;DHT22;24126;52.672;13.622;2023-12-14T11:33:49;9.00;79.00
38325;DHT22;24126;52.672;13.622;2023-12-14T11:36:16;9.00;79.20
38325;DHT22;24126;52.672;13.622;2023-12-14T11:38:43;9.00;79.10
38325;DHT22;24126;52.672;13.622;2023-12-14T11:41:10;9.00;79.00
38325;DHT22;24126;52.672;13.622;2023-12-14T11:43:39;9.00;79.00
38325;DHT22;24126;52.672;13.622;2023-12-14T11:46:07;9.10;78.90
38325;DHT22;24126;52.672;13.622;2023-12-14T11:48:34;9.00;78.90
38325;DHT22;24126;52.672;13.622;2023-12-14T11:51:01;9.00;79.00
38325;DHT22;24126;52.672;13.622;2023-12-14T11:53:29;9.10;78.90
38325;DHT22;24126;52.672;13.622;2023-12-14T11:55:57;9.10;79.00
38325;DHT22;24126;52.672;13.622;2023-12-14T11:58:24;9.10;78.80
38325;DHT22;24126;52.672;13.622;2023-12-14T12:00:51;9.10;78.70
38325;DHT22;24126;52.672;13.622;2023-12-14T12:03:19;9.10;78.50
38325;DHT22;24126;52.672;13.622;2023-12-14T12:05:51;9.10;78.70
38325;DHT22;24126;52.672;13.622;2023-12-14T12:08:19;9.10;78.80
38325;DHT22;24126;52.672;13.622;2023-12-14T12:10:47;9.10;78.80
38325;DHT22;24126;52.672;13.622;2023-12-14T12:13:15;9.10;78.80
38325;DHT22;24126;52.672;13.622;2023-12-14T12:15:43;9.10;78.80
38325;DHT22;24126;52.672;13.622;2023-12-14T12:18:11;9.10;78.70
38325;DHT22;24126;52.672;13.622;2023-12-14T12:20:42;9.10;78.80
38325;DHT22;24126;52.672;13.622;2023-12-14T12:26:12;9.10;78.70
38325;DHT22;24126;52.672;13.622;2023-12-14T12:28:39;9.10;78.80
38325;DHT22;24126;52.672;13.622;2023-12-14T12:31:12;9.10;78.50
38325;DHT22;24126;52.672;13.622;2023-12-14T12:33:45;9.10;78.50
38325;DHT22;24126;52.672;13.622;2023-12-14T12:36:19;9.10;78.60
38325;DHT22;24126;52.672;13.622;2023-12-14T12:38:47;9.10;78.60
38325;DHT22;24126;52.672;13.622;2023-12-14T12:41:14;9.10;78.50
38325;DHT22;24126;52.672;13.622;2023-12-14T12:43:41;9.10;78.50
38325;DHT22;24126;52.672;13.622;2023-12-14T12:46:09;9.10;78.50
38325;DHT22;24126;52.672;13.622;2023-12-14T12:48:36;9.10;78.50
38325;DHT22;24126;52.672;13.622;2023-12-14T12:51:04;9.10;78.50
38325;DHT22;24126;52.672;13.622;2023-12-14T12:53:31;9.10;78.50
38325;DHT22;24126;52.672;13.622;2023-12-14T12:55:59;9.00;78.50
38325;DHT22;24126;52.672;13.622;2023-12-14T12:58:26;9.00;78.60
38325;DHT22;24126;52.672;13.622;2023-12-14T13:00:54;9.00;78.50
38325;DHT22;24126;52.672;13.622;2023-12-14T13:03:24;9.00;78.40
38325;DHT22;24126;52.672;13.622;2023-12-14T13:05:51;9.00;78.60
38325;DHT22;24126;52.672;13.622;2023-12-14T13:08:18;9.00;78.70
38325;DHT22;24126;52.672;13.622;2023-12-14T13:10:48;9.10;78.50
38325;DHT22;24126;52.672;13.622;2023-12-14T13:13:17;9.00;78.50
38325;DHT22;24126;52.672;13.622;2023-12-14T13:15:44;9.10;78.70
38325;DHT22;24126;52.672;13.622;2023-12-14T13:18:12;9.10;78.50
38325;DHT22;24126;52.672;13.622;2023-12-14T13:20:41;9.10;78.60
38325;DHT22;24126;52.672;13.622;2023-12-14T13:23:09;9.10;78.50
38325;DHT22;24126;52.672;13.622;2023-12-14T13:25:36;9.10;78.40
38325;DHT22;24126;52.672;13.622;2023-12-14T13:28:03;9.10;78.30
38325;DHT22;24126;52.672;13.622;2023-12-14T13:30:31;9.10;78.40
38325;DHT22;24126;52.672;13.622;2023-12-14T13:32:59;9.20;78.30
38325;DHT22;24126;52.672;13.622;2023-12-14T13:35:26;9.10;78.30
38325;DHT22;24126;52.672;13.622;2023-12-14T13:37:54;9.20;78.30
38325;DHT22;24126;52.672;13.622;2023-12-14T13:40:21;9.20;78.30
38325;DHT22;24126;52.672;13.622;2023-12-14T13:42:52;9.20;78.30
38325;DHT22;24126;52.672;13.622;2023-12-14T13:45:19;9.20;78.30
38325;DHT22;24126;52.672;13.622;2023-12-14T13:47:47;9.20;78.20
38325;DHT22;24126;52.672;13.622;2023-12-14T13:50:17;9.20;78.20
38325;DHT22;24126;52.672;13.622;2023-12-14T13:52:50;9.20;78.30
38325;DHT22;24126;52.672;13.622;2023-12-14T13:55:18;9.20;78.20
38325;DHT22;24126;52.672;13.622;2023-12-14T13:57:45;9.20;78.10
38325;DHT22;24126;52.672;13.622;2023-12-14T14:00:14;9.20;78.20
38325;DHT22;24126;52.672;13.622;2023-12-14T14:02:42;9.20;78.30
38325;DHT22;24126;52.672;13.622;2023-12-14T14:05:09;9.20;78.30
38325;DHT22;24126;52.672;13.622;2023-12-14T14:07:36;9.20;78.30
38325;DHT22;24126;52.672;13.622;2023-12-14T14:10:03;9.10;78.20
38325;DHT22;24126;52.672;13.622;2023-12-14T14:12:31;9.10;78.40
38325;DHT22;24126;52.672;13.622;2023-12-14T14:14:58;9.20;78.30
38325;DHT22;24126;52.672;13.622;2023-12-14T14:17:27;9.10;78.40
38325;DHT22;24126;52.672;13.622;2023-12-14T14:19:54;9.20;78.40
38325;DHT22;24126;52.672;13.622;2023-12-14T14:22:21;9.20;78.50
38325;DHT22;24126;52.672;13.622;2023-12-14T14:24:49;9.20;78.50
38325;DHT22;24126;52.672;13.622;2023-12-14T14:27:17;9.20;78.40
38325;DHT22;24126;52.672;13.622;2023-12-14T14:29:44;9.20;78.40
38325;DHT22;24126;52.672;13.622;2023-12-14T14:32:14;9.10;78.50
38325;DHT22;24126;52.672;13.622;2023-12-14T14:34:42;9.20;78.50
38325;DHT22;24126;52.672;13.622;2023-12-14T14:37:09;9.10;78.40
38325;DHT22;24126;52.672;13.622;2023-12-14T14:39:39;9.10;78.30
38325;DHT22;24126;52.672;13.622;2023-12-14T14:42:09;9.10;78.40
38325;DHT22;24126;52.672;13.622;2023-12-14T14:44:36;9.10;78.40
38325;DHT22;24126;52.672;13.622;2023-12-14T14:47:03;9.10;78.30
38325;DHT22;24126;52.672;13.622;2023-12-14T14:49:31;9.00;78.40
38325;DHT22;24126;52.672;13.622;2023-12-14T14:51:58;9.00;78.50
38325;DHT22;24126;52.672;13.622;2023-12-14T14:54:25;9.00;78.40
38325;DHT22;24126;52.672;13.622;2023-12-14T14:56:53;9.00;78.60
38325;DHT22;24126;52.672;13.622;2023-12-14T14:59:20;9.00;78.60
38325;DHT22;24126;52.672;13.622;2023-12-14T15:01:48;9.00;78.60
38325;DHT22;24126;52.672;13.622;2023-12-14T15:04:16;9.00;78.60
38325;DHT22;24126;52.672;13.622;2023-12-14T15:06:47;9.00;78.40
38325;DHT22;24126;52.672;13.622;2023-12-14T15:09:14;9.00;78.40
38325;DHT22;24126;52.672;13.622;2023-12-14T15:11:55;9.00;78.50
38325;DHT22;24126;52.672;13.622;2023-12-14T15:14:22;9.00;78.60
38325;DHT22;24126;52.672;13.622;2023-12-14T15:16:50;9.00;78.50
38325;DHT22;24126;52.672;13.622;2023-12-14T15:19:17;9.00;78.60
38325;DHT22;24126;52.672;13.622;2023-12-14T15:21:50;9.00;78.40
38325;DHT22;24126;52.672;13.622;2023-12-14T15:24:23;9.00;78.60
38325;DHT22;24126;52.672;13.622;2023-12-14T15:26:50;9.00;78.30
38325;DHT22;24126;52.672;13.622;2023-12-14T15:32:40;9.00;78.50
38325;DHT22;24126;52.672;13.622;2023-12-14T15:41:36;8.90;78.40
38325;DHT22;24126;52.672;13.622;2023-12-14T15:44:09;8.90;78.30
38325;DHT22;24126;52.672;13.622;2023-12-14T15:46:43;8.90;78.30
38325;DHT22;24126;52.672;13.622;2023-12-14T15:49:10;8.90;78.40
38325;DHT22;24126;52.672;13.622;2023-12-14T15:51:40;8.90;78.30
38325;DHT22;24126;52.672;13.622;2023-12-14T15:54:11;8.90;78.40
38325;DHT22;24126;52.672;13.622;2023-12-14T15:57:02;8.90;78.40
38325;DHT22;24126;52.672;13.622;2023-12-14T16:03:15;8.90;78.40
38325;DHT22;24126;52.672;13.622;2023-12-14T16:05:51;8.90;78.30
38325;DHT22;24126;52.672;13.622;2023-12-14T16:08:22;8.90;78.40
38325;DHT22;24126;52.672;13.622;2023-12-14T16:10:53;8.90;78.30
38325;DHT22;24126;52.672;13.622;2023-12-14T16:13:26;8.90;78.40
38325;DHT22;24126;52.672;13.622;2023-12-14T16:26:12;8.80;78.10
38325;DHT22;24126;52.672;13.622;2023-12-14T16:28:40;8.80;78.10
38325;DHT22;24126;52.672;13.622;2023-12-14T16:31:07;8.80;78.10
38325;DHT22;24126;52.672;13.622;2023-12-14T16:33:42;8.70;78.20
38325;DHT22;24126;52.672;13.622;2023-12-14T16:36:10;8.70;78.20
38325;DHT22;24126;52.672;13.622;2023-12-14T16:38:39;8.70;78.20
38325;DHT22;24126;52.672;13.622;2023-12-14T16:41:07;8.70;78.10
38325;DHT22;24126;52.672;13.622;2023-12-14T16:43:37;8.70;78.30
38325;DHT22;24126;52.672;13.622;2023-12-14T16:46:05;8.70;78.10
38325;DHT22;24126;52.672;13.622;2023-12-14T16:48:46;8.70;78.10
38325;DHT22;24126;52.672;13.622;2023-12-14T16:51:16;8.70;78.00
38325;DHT22;24126;52.672;13.622;2023-12-14T16:53:58;8.70;78.00
38325;DHT22;24126;52.672;13.622;2023-12-14T16:59:42;8.70;77.90
38325;DHT22;24126;52.672;13.622;2023-12-14T17:02:32;8.70;77.90
38325;DHT22;24126;52.672;13.622;2023-12-14T17:05:15;8.70;78.10
38325;DHT22;24126;52.672;13.622;2023-12-14T17:07:42;8.60;78.10
38325;DHT22;24126;52.672;13.622;2023-12-14T17:13:22;8.70;77.90
38325;DHT22;24126;52.672;13.622;2023-12-14T17:15:52;8.60;77.90
38325;DHT22;24126;52.672;13.622;2023-12-14T17:18:19;8.60;77.80
38325;DHT22;24126;52.672;13.622;2023-12-14T17:24:00;8.60;77.90
38325;DHT22;24126;52.672;13.622;2023-12-14T17:27:17;8.60;77.90
38325;DHT22;24126;52.672;13.622;2023-12-14T17:32:47;8.60;77.80
38325;DHT22;24126;52.672;13.622;2023-12-14T17:35:26;8.60;77.90
38325;DHT22;24126;52.672;13.622;2023-12-14T17:41:47;8.60;77.90
38325;DHT22;24126;52.672;13.622;2023-12-14T17:48:33;8.60;78.00
38325;DHT22;24126;52.672;13.622;2023-12-14T17:51:04;8.50;77.70
38325;DHT22;24126;52.672;13.622;2023-12-14T17:53:41;8.50;78.40
38325;DHT22;24126;52.672;13.622;2023-12-14T17:56:19;8.50;77.80
38325;DHT22;24126;52.672;13.622;2023-12-14T18:01:58;8.50;77.80
38325;DHT22;24126;52.672;13.622;2023-12-14T18:04:39;8.50;77.80
38325;DHT22;24126;52.672;13.622;2023-12-14T18:07:10;8.50;77.90
38325;DHT22;24126;52.672;13.622;2023-12-14T18:09:39;8.50;77.80
38325;DHT22;24126;52.672;13.622;2023-12-14T18:12:07;8.50;77.70
38325;DHT22;24126;52.672;13.622;2023-12-14T18:14:34;8.50;77.70
38325;DHT22;24126;52.672;13.622;2023-12-14T18:17:04;8.50;77.70
38325;DHT22;24126;52.672;13.622;2023-12-14T18:19:32;8.50;77.80
38325;DHT22;24126;52.672;13.622;2023-12-14T18:22:17;8.50;77.60
38325;DHT22;24126;52.672;13.622;2023-12-14T18:25:00;8.50;77.60
38325;DHT22;24126;52.672;13.622;2023-12-14T18:27:37;8.50;77.80